Helas — C4AZ2 — position and weather

sailwx.info

Track history (hours):
 
Tides and Currents Weather Stations Pressure Air Temp Water Temp Dewpoint Dewpoint Depression Visibility Wind Speed Wind Dir Waves Ship Positions

Helas

Last reported at 2015-Jul-03 10:23 UTC. Time now 2015-Jul-03 20:22 UTC.
Position N 41°16' W 008°50'.

Length 89 m; draft 2.9 m.

Type: Cargo ship. MMSI: 210031000.

Date/timePositionNaut miles runAvg speedWind from/ knotsBaromVisibWave heightAir tempDewpointWater temp
2015-Jul-03 10:23N 41°16' W 008°50'  
2015-Jun-30 05:32N 41°10' W 008°47'3 3.2
2015-Jun-30 04:33N 41°13' W 008°48'7 6.9
2015-Jun-30 03:33N 41°19' W 008°53'1010.1
2015-Jun-30 02:33N 41°28' W 008°58'1111.1
2015-Jun-30 01:33N 41°39' W 008°58'1110.9
2015-Jun-30 00:32N 41°50' W 008°58'1110.8
2015-Jun-29 23:32N 42°01' W 008°58'1110.9
2015-Jun-29 22:33N 42°12' W 008°58'10 9.8
2015-Jun-29 21:32N 42°21' W 008°53'5 0.3
2015-Jun-29 04:32N 42°19' W 008°60'9 9.5
2015-Jun-29 03:33N 42°24' W 009°10'10 9.5
2015-Jun-29 02:33N 42°29' W 009°20'9 9.2
2015-Jun-29 01:33N 42°34' W 009°31'9 8.8
2015-Jun-29 00:33N 42°40' W 009°41'9 8.9
2015-Jun-28 23:33N 42°45' W 009°51'11 9.2
2015-Jun-28 22:23N 42°51' W 010°03'8 9.1
2015-Jun-28 21:33N 42°58' W 010°06'  
2015-Jun-26 13:04N 49°54' W 003°06'5 8.4
2015-Jun-26 12:29N 49°56' W 002°60'8 8.7
2015-Jun-26 11:33N 49°60' W 002°48'12 9.6
2015-Jun-26 10:21N 50°03' W 002°31'2010.9
2015-Jun-26 08:29N 50°09' W 002°01'1211.2
2015-Jun-26 07:22N 50°13' W 001°42'1010.7
2015-Jun-26 06:28N 50°15' W 001°28'12 9.8
2015-Jun-26 05:12N 50°19' W 001°09'6 8.9
2015-Jun-26 04:33N 50°20' W 001°00'18 8.1
2015-Jun-26 02:16N 50°26' W 000°33'6 8.4
2015-Jun-26 01:33N 50°27' W 000°24'13 9.4
2015-Jun-26 00:12N 50°31' W 000°05'1710.3
2015-Jun-25 22:33N 50°36' E 000°21'1010.3
2015-Jun-25 21:33N 50°39' E 000°36'10 9.9
2015-Jun-25 20:33N 50°45' E 000°49'9 9.3
2015-Jun-25 19:33N 50°50' E 001°01'9 8.7
2015-Jun-25 18:33N 50°56' E 001°12'8 8.3
2015-Jun-25 17:33N 51°01' E 001°22'9 9.0
2015-Jun-25 16:33N 51°07' E 001°33'1010.1
2015-Jun-25 15:33N 51°13' E 001°45'1111.1
2015-Jun-25 14:33N 51°24' E 001°53'1111.2
2015-Jun-25 13:33N 51°32' E 002°04'1110.7
2015-Jun-25 12:33N 51°40' E 002°16'48 8.9
2015-Jun-25 07:11N 52°15' E 003°09'27 9.2
2015-Jun-25 04:16N 52°29' E 003°47'7 9.7
2015-Jun-25 03:32N 52°31' E 003°58'10 9.7
2015-Jun-25 02:32N 52°31' E 004°14'9 9.3
2015-Jun-25 01:33N 52°29' E 004°28'5 4.9
2015-Jun-25 00:32N 52°28' E 004°36'0 0.0
2015-Jun-24 23:32N 52°28' E 004°36'0 0.0
2015-Jun-24 22:32N 52°28' E 004°36'0 0.0
2015-Jun-24 21:32N 52°28' E 004°36'0 0.0
2015-Jun-24 20:32N 52°28' E 004°36'0 0.0
2015-Jun-24 19:32N 52°28' E 004°36'0 0.0
2015-Jun-24 18:32N 52°28' E 004°36'0 0.0
2015-Jun-24 17:32N 52°28' E 004°36'0 0.0
2015-Jun-24 16:32N 52°28' E 004°36'0 0.0
2015-Jun-24 15:32N 52°28' E 004°36'0 0.0
2015-Jun-24 14:32N 52°28' E 004°36'0 0.0
2015-Jun-24 13:32N 52°28' E 004°36'0 0.0
2015-Jun-24 12:32N 52°28' E 004°36'0 0.0
2015-Jun-24 11:32N 52°28' E 004°36'0 0.0
2015-Jun-24 10:32N 52°28' E 004°36'0 0.0
2015-Jun-24 09:31N 52°28' E 004°36'0 0.0
2015-Jun-24 08:28N 52°28' E 004°36'0 0.0
2015-Jun-24 07:31N 52°28' E 004°36'0 0.0
2015-Jun-24 06:31N 52°28' E 004°36'0 0.0
2015-Jun-24 05:31N 52°28' E 004°36'0 0.0
2015-Jun-24 04:25N 52°28' E 004°36'0 0.0
2015-Jun-24 03:28N 52°28' E 004°36'0 0.1
2015-Jun-24 02:31N 52°28' E 004°36'0 0.0
2015-Jun-24 01:31N 52°28' E 004°36'0 0.0
2015-Jun-24 00:31N 52°28' E 004°36'0 0.0
2015-Jun-23 23:31N 52°28' E 004°36'0 0.0
2015-Jun-23 22:31N 52°28' E 004°36'0 0.0
2015-Jun-23 21:31N 52°28' E 004°36'0 0.0
2015-Jun-23 20:31N 52°28' E 004°36'0 0.0
2015-Jun-23 19:31N 52°28' E 004°36'0 0.0
2015-Jun-23 19:04N 52°28' E 004°36'  
Track history (hours):
 
Tides and Currents Weather Stations Pressure Air Temp Water Temp Dewpoint Dewpoint Depression Visibility Wind Speed Wind Dir Waves Ship Positions

Helas

Last reported at 2015-Jul-03 10:23 UTC. Time now 2015-Jul-03 20:22 UTC.
Position N 41°16' W 008°50'.

Length 89 m; draft 2.9 m.

Type: Cargo ship. MMSI: 210031000.

Date/timePositionNaut miles runAvg speedWind from/ knotsBaromVisibWave heightAir tempDewpointWater temp
2015-Jul-03 10:23N 41°16' W 008°50'  
2015-Jun-30 05:32N 41°10' W 008°47'3 3.2
2015-Jun-30 04:33N 41°13' W 008°48'7 6.9
2015-Jun-30 03:33N 41°19' W 008°53'1010.1
2015-Jun-30 02:33N 41°28' W 008°58'1111.1
2015-Jun-30 01:33N 41°39' W 008°58'1110.9
2015-Jun-30 00:32N 41°50' W 008°58'1110.8
2015-Jun-29 23:32N 42°01' W 008°58'1110.9
2015-Jun-29 22:33N 42°12' W 008°58'10 9.8
2015-Jun-29 21:32N 42°21' W 008°53'5 0.3
2015-Jun-29 04:32N 42°19' W 008°60'9 9.5
2015-Jun-29 03:33N 42°24' W 009°10'10 9.5
2015-Jun-29 02:33N 42°29' W 009°20'9 9.2
2015-Jun-29 01:33N 42°34' W 009°31'9 8.8
2015-Jun-29 00:33N 42°40' W 009°41'9 8.9
2015-Jun-28 23:33N 42°45' W 009°51'11 9.2
2015-Jun-28 22:23N 42°51' W 010°03'8 9.1
2015-Jun-28 21:33N 42°58' W 010°06'  
2015-Jun-26 13:04N 49°54' W 003°06'5 8.4
2015-Jun-26 12:29N 49°56' W 002°60'8 8.7
2015-Jun-26 11:33N 49°60' W 002°48'12 9.6
2015-Jun-26 10:21N 50°03' W 002°31'2010.9
2015-Jun-26 08:29N 50°09' W 002°01'1211.2
2015-Jun-26 07:22N 50°13' W 001°42'1010.7
2015-Jun-26 06:28N 50°15' W 001°28'12 9.8
2015-Jun-26 05:12N 50°19' W 001°09'6 8.9
2015-Jun-26 04:33N 50°20' W 001°00'18 8.1
2015-Jun-26 02:16N 50°26' W 000°33'6 8.4
2015-Jun-26 01:33N 50°27' W 000°24'13 9.4
2015-Jun-26 00:12N 50°31' W 000°05'1710.3
2015-Jun-25 22:33N 50°36' E 000°21'1010.3
2015-Jun-25 21:33N 50°39' E 000°36'10 9.9
2015-Jun-25 20:33N 50°45' E 000°49'9 9.3
2015-Jun-25 19:33N 50°50' E 001°01'9 8.7
2015-Jun-25 18:33N 50°56' E 001°12'8 8.3
2015-Jun-25 17:33N 51°01' E 001°22'9 9.0
2015-Jun-25 16:33N 51°07' E 001°33'1010.1
2015-Jun-25 15:33N 51°13' E 001°45'1111.1
2015-Jun-25 14:33N 51°24' E 001°53'1111.2
2015-Jun-25 13:33N 51°32' E 002°04'1110.7
2015-Jun-25 12:33N 51°40' E 002°16'48 8.9
2015-Jun-25 07:11N 52°15' E 003°09'27 9.2
2015-Jun-25 04:16N 52°29' E 003°47'7 9.7
2015-Jun-25 03:32N 52°31' E 003°58'10 9.7
2015-Jun-25 02:32N 52°31' E 004°14'9 9.3
2015-Jun-25 01:33N 52°29' E 004°28'5 4.9
2015-Jun-25 00:32N 52°28' E 004°36'0 0.0
2015-Jun-24 23:32N 52°28' E 004°36'0 0.0
2015-Jun-24 22:32N 52°28' E 004°36'0 0.0
2015-Jun-24 21:32N 52°28' E 004°36'0 0.0
2015-Jun-24 20:32N 52°28' E 004°36'0 0.0
2015-Jun-24 19:32N 52°28' E 004°36'0 0.0
2015-Jun-24 18:32N 52°28' E 004°36'0 0.0
2015-Jun-24 17:32N 52°28' E 004°36'0 0.0
2015-Jun-24 16:32N 52°28' E 004°36'0 0.0
2015-Jun-24 15:32N 52°28' E 004°36'0 0.0
2015-Jun-24 14:32N 52°28' E 004°36'0 0.0
2015-Jun-24 13:32N 52°28' E 004°36'0 0.0
2015-Jun-24 12:32N 52°28' E 004°36'0 0.0
2015-Jun-24 11:32N 52°28' E 004°36'0 0.0
2015-Jun-24 10:32N 52°28' E 004°36'0 0.0
2015-Jun-24 09:31N 52°28' E 004°36'0 0.0
2015-Jun-24 08:28N 52°28' E 004°36'0 0.0
2015-Jun-24 07:31N 52°28' E 004°36'0 0.0
2015-Jun-24 06:31N 52°28' E 004°36'0 0.0
2015-Jun-24 05:31N 52°28' E 004°36'0 0.0
2015-Jun-24 04:25N 52°28' E 004°36'0 0.0
2015-Jun-24 03:28N 52°28' E 004°36'0 0.1
2015-Jun-24 02:31N 52°28' E 004°36'0 0.0
2015-Jun-24 01:31N 52°28' E 004°36'0 0.0
2015-Jun-24 00:31N 52°28' E 004°36'0 0.0
2015-Jun-23 23:31N 52°28' E 004°36'0 0.0
2015-Jun-23 22:31N 52°28' E 004°36'0 0.0
2015-Jun-23 21:31N 52°28' E 004°36'0 0.0
2015-Jun-23 20:31N 52°28' E 004°36'0 0.0
2015-Jun-23 19:31N 52°28' E 004°36'0 0.0
2015-Jun-23 19:04N 52°28' E 004°36'  

Dump ship's entire track history